Time;durP1;ratioP1;P1;durP2;ratioP2;P2;SDS_P1;SDS_P2;PMS_P1;PMS_P2;Temp;Humidity;BMP_temperature;BMP_pressure;BME280_temperature;BME280_humidity;BME280_pressure;Samples;Min_cycle;Max_cycle;Signal;HPM_P1;HPM_P2
2022/05/30 00:01:19;;;;;;;8.40;2.08;;;10.80;99.90;;;;;;5091819;28;20173;-51
2022/05/30 00:03:45;;;;;;;7.05;2.45;;;10.80;99.90;;;;;;5073317;28;20641;-50
2022/05/30 00:06:17;;;;;;;10.23;2.70;;;10.80;99.90;;;;;;5091531;28;20181;-52
2022/05/30 00:08:43;;;;;;;10.50;2.65;;;10.80;99.90;;;;;;5091444;28;20176;-51
2022/05/30 00:11:11;;;;;;;10.27;2.45;;;10.80;99.90;;;;;;5091548;28;20169;-51
2022/05/30 00:13:37;;;;;;;5.68;2.47;;;10.80;99.90;;;;;;5091864;28;20189;-54
2022/05/30 00:16:08;;;;;;;9.63;3.15;;;10.80;99.90;;;;;;5095344;28;20203;-52
2022/05/30 00:18:34;;;;;;;5.72;2.40;;;10.70;99.90;;;;;;5095345;28;20161;-52
2022/05/30 00:21:00;;;;;;;9.77;2.60;;;10.80;99.90;;;;;;5095241;28;20502;-51
2022/05/30 00:23:26;;;;;;;6.32;2.60;;;10.80;99.90;;;;;;5095406;28;20189;-52
2022/05/30 00:25:52;;;;;;;4.85;2.25;;;10.90;99.90;;;;;;5095032;28;20240;-52
2022/05/30 00:28:18;;;;;;;8.70;2.58;;;10.90;99.90;;;;;;5076789;28;20618;-52
2022/05/30 00:30:45;;;;;;;9.85;2.40;;;10.90;99.90;;;;;;5095018;28;20166;-51
2022/05/30 00:33:11;;;;;;;4.63;2.15;;;10.90;99.90;;;;;;5076715;28;20530;-52
2022/05/30 00:35:38;;;;;;;5.45;2.30;;;10.90;99.90;;;;;;5094833;28;20180;-52
2022/05/30 00:38:04;;;;;;;8.85;2.35;;;10.90;99.90;;;;;;5094873;28;20181;-52
2022/05/30 00:40:31;;;;;;;6.20;2.00;;;10.90;99.90;;;;;;5094715;28;20207;-49
2022/05/30 00:43:15;;;;;;;3.42;2.40;;;10.90;99.90;;;;;;5095273;28;20172;-52
2022/05/30 00:45:41;;;;;;;8.23;2.63;;;10.90;99.90;;;;;;5094584;28;20254;-52
2022/05/30 00:48:07;;;;;;;6.43;2.83;;;10.90;99.90;;;;;;5094661;28;20165;-52
2022/05/30 00:50:33;;;;;;;3.65;2.08;;;10.90;99.90;;;;;;5094498;28;20172;-52
2022/05/30 00:52:58;;;;;;;6.10;2.42;;;11.00;99.90;;;;;;5094639;28;20221;-52
2022/05/30 00:55:24;;;;;;;6.15;2.58;;;10.90;99.90;;;;;;5094460;28;20676;-52
2022/05/30 00:57:50;;;;;;;7.03;2.83;;;10.90;99.90;;;;;;5094420;28;20169;-52
2022/05/30 01:00:19;;;;;;;7.15;2.85;;;10.90;99.90;;;;;;5094393;28;20165;-52
2022/05/30 01:02:46;;;;;;;10.27;2.30;;;11.00;99.90;;;;;;5094584;28;20169;-52
2022/05/30 01:08:01;;;;;;;4.38;2.40;;;10.90;99.90;;;;;;5094905;28;20176;-51
2022/05/30 01:10:27;;;;;;;10.30;2.33;;;10.80;99.90;;;;;;5094649;28;20167;-51
2022/05/30 01:12:57;;;;;;;9.07;2.30;;;10.80;99.90;;;;;;5094151;28;20523;-52
2022/05/30 01:15:26;;;;;;;9.13;2.50;;;10.80;99.90;;;;;;5075865;28;20205;-52
2022/05/30 01:18:21;;;;;;;7.18;3.08;;;10.70;99.90;;;;;;5093958;28;20622;-50
2022/05/30 01:20:56;;;;;;;4.05;2.00;;;10.70;99.90;;;;;;5093515;28;20181;-52
2022/05/30 01:23:43;;;;;;;6.82;2.38;;;10.70;99.90;;;;;;5093915;28;20161;-50
2022/05/30 01:26:31;;;;;;;8.18;2.50;;;10.80;99.90;;;;;;5093154;28;20212;-51
2022/05/30 01:29:20;;;;;;;5.50;2.92;;;10.70;99.90;;;;;;5094393;28;20172;-50
2022/05/30 01:31:46;;;;;;;9.25;2.70;;;10.70;99.90;;;;;;5075707;28;20166;-50
2022/05/30 01:34:11;;;;;;;9.68;3.22;;;10.70;99.90;;;;;;5093756;28;20234;-49
2022/05/30 01:36:37;;;;;;;7.70;2.20;;;10.70;99.90;;;;;;5093617;28;20173;-48
2022/05/30 01:39:03;;;;;;;9.02;2.42;;;10.70;99.90;;;;;;5093853;28;20165;-48
2022/05/30 01:41:29;;;;;;;10.55;2.40;;;10.80;99.90;;;;;;5093858;28;20205;-48
2022/05/30 01:43:55;;;;;;;9.45;2.47;;;10.80;99.90;;;;;;5093719;28;20220;-47
2022/05/30 01:46:23;;;;;;;6.75;2.20;;;10.70;99.90;;;;;;5093524;28;20170;-48
2022/05/30 01:48:50;;;;;;;7.13;2.65;;;10.70;99.90;;;;;;5093470;28;20249;-48
2022/05/30 01:51:18;;;;;;;7.15;2.28;;;10.70;99.90;;;;;;5093381;28;20174;-48
2022/05/30 01:53:45;;;;;;;6.32;2.50;;;10.70;99.90;;;;;;5093560;28;20185;-47
2022/05/30 01:56:10;;;;;;;6.78;2.28;;;10.70;99.90;;;;;;5093296;28;20604;-52
2022/05/30 01:58:36;;;;;;;6.00;2.25;;;10.80;99.90;;;;;;5093300;28;20342;-52
2022/05/30 02:01:13;;;;;;;9.50;2.30;;;10.70;99.90;;;;;;5093135;28;20181;-52
2022/05/30 02:03:39;;;;;;;5.43;2.65;;;10.70;99.90;;;;;;5092979;28;20535;-52
2022/05/30 02:06:04;;;;;;;5.15;2.05;;;10.70;99.90;;;;;;5093148;28;20177;-52
2022/05/30 02:08:30;;;;;;;7.18;3.10;;;10.70;99.90;;;;;;5092996;28;20170;-51
2022/05/30 02:10:55;;;;;;;7.90;2.78;;;10.70;99.90;;;;;;5093328;28;20172;-52
2022/05/30 02:13:22;;;;;;;8.38;2.65;;;10.70;99.90;;;;;;5074797;28;20170;-52
2022/05/30 02:18:32;;;;;;;4.13;2.28;;;10.70;99.90;;;;;;5092861;28;20225;-52
2022/05/30 02:20:57;;;;;;;5.22;2.53;;;10.70;99.90;;;;;;5093130;28;20565;-52
2022/05/30 02:23:23;;;;;;;6.72;2.58;;;10.60;99.90;;;;;;5092800;28;20203;-52
2022/05/30 02:25:48;;;;;;;5.03;2.70;;;10.60;99.90;;;;;;5092702;28;20239;-52
2022/05/30 02:28:14;;;;;;;5.88;2.50;;;10.60;99.90;;;;;;5092724;28;20169;-52
2022/05/30 02:30:40;;;;;;;6.82;2.85;;;10.60;99.90;;;;;;5092725;28;20200;-52
2022/05/30 02:38:34;;;;;;;7.60;3.10;;;10.50;99.90;;;;;;5091671;28;20201;-52
2022/05/30 02:40:59;;;;;;;7.38;2.60;;;10.60;99.90;;;;;;5092805;28;20592;-49
2022/05/30 02:43:25;;;;;;;4.93;2.70;;;10.50;99.90;;;;;;5092731;28;20173;-49
2022/05/30 02:45:50;;;;;;;5.70;2.40;;;10.50;99.90;;;;;;5092347;28;20209;-52
2022/05/30 02:48:16;;;;;;;11.10;2.83;;;10.60;99.90;;;;;;5092354;28;20201;-52
2022/05/30 02:50:41;;;;;;;8.07;2.72;;;10.60;99.90;;;;;;5092355;28;20173;-52
2022/05/30 02:53:07;;;;;;;5.47;3.40;;;10.60;99.90;;;;;;5092305;28;20213;-51
2022/05/30 02:55:32;;;;;;;7.38;2.60;;;10.60;99.90;;;;;;5092296;28;20188;-51
2022/05/30 02:57:58;;;;;;;8.60;2.65;;;10.60;99.90;;;;;;5092584;28;20195;-52
2022/05/30 03:00:26;;;;;;;7.18;2.92;;;10.60;99.90;;;;;;5092161;28;20169;-51
2022/05/30 03:02:52;;;;;;;7.60;2.70;;;10.70;99.90;;;;;;5092418;28;20173;-51
2022/05/30 03:05:18;;;;;;;9.70;2.95;;;10.70;99.90;;;;;;5092035;28;20228;-50
2022/05/30 03:07:43;;;;;;;8.82;2.90;;;10.60;99.90;;;;;;5092351;28;20221;-51
2022/05/30 03:10:09;;;;;;;7.88;3.00;;;10.60;99.90;;;;;;5092146;28;20646;-51
2022/05/30 03:12:35;;;;;;;7.43;3.60;;;10.60;99.90;;;;;;5092157;28;20595;-49
2022/05/30 03:15:00;;;;;;;9.10;2.88;;;10.60;99.90;;;;;;5092023;28;20161;-50
2022/05/30 03:17:26;;;;;;;5.40;2.83;;;10.60;99.90;;;;;;5092314;28;20161;-49
2022/05/30 03:19:52;;;;;;;4.93;2.78;;;10.60;99.90;;;;;;5091943;28;20175;-50
2022/05/30 03:22:18;;;;;;;9.80;3.95;;;10.60;99.90;;;;;;5092188;28;20169;-49
2022/05/30 03:24:44;;;;;;;8.32;3.05;;;10.60;99.90;;;;;;5091985;28;20254;-52
2022/05/30 03:27:10;;;;;;;11.25;3.40;;;10.60;99.90;;;;;;5092220;28;20254;-51
2022/05/30 03:29:35;;;;;;;6.70;2.90;;;10.60;99.90;;;;;;5091834;28;20244;-47
2022/05/30 03:32:01;;;;;;;10.13;2.78;;;10.60;99.90;;;;;;5073680;28;20531;-46
2022/05/30 03:34:26;;;;;;;8.68;2.97;;;10.60;99.90;;;;;;5092184;28;20173;-46
2022/05/30 03:36:52;;;;;;;8.10;3.03;;;10.60;99.90;;;;;;5091871;28;20710;-47
2022/05/30 03:39:17;;;;;;;7.65;2.70;;;10.70;99.90;;;;;;5092018;28;20218;-46
2022/05/30 03:41:43;;;;;;;9.93;2.70;;;10.60;99.90;;;;;;5091771;28;20773;-46
2022/05/30 03:44:08;;;;;;;10.13;2.72;;;10.60;99.90;;;;;;5091716;28;20216;-46
2022/05/30 03:46:34;;;;;;;10.82;3.38;;;10.60;99.90;;;;;;5091729;28;20234;-46
2022/05/30 03:49:00;;;;;;;3.40;2.60;;;10.60;99.90;;;;;;5093287;28;20176;-46
2022/05/30 03:51:25;;;;;;;7.80;3.45;;;10.60;99.90;;;;;;5095830;28;20217;-51
2022/05/30 03:53:52;;;;;;;6.68;2.78;;;10.60;99.90;;;;;;5095648;28;20531;-51
2022/05/30 03:56:19;;;;;;;8.68;3.40;;;10.60;99.90;;;;;;5095635;28;20184;-51
2022/05/30 03:58:45;;;;;;;6.63;2.90;;;10.70;99.90;;;;;;5095800;28;20169;-51
2022/05/30 04:01:11;;;;;;;10.27;2.67;;;10.70;99.90;;;;;;5095494;28;20630;-51
2022/05/30 04:03:37;;;;;;;6.22;2.40;;;10.70;99.90;;;;;;5095474;28;20187;-50
2022/05/30 04:06:03;;;;;;;8.40;2.63;;;10.60;99.90;;;;;;5095459;28;20169;-52
2022/05/30 04:08:29;;;;;;;7.32;2.30;;;10.60;99.90;;;;;;5095595;28;20256;-51
2022/05/30 04:10:55;;;;;;;7.63;2.78;;;10.60;99.90;;;;;;5095269;28;20203;-51
2022/05/30 04:13:20;;;;;;;4.55;2.53;;;10.60;99.90;;;;;;5095260;28;20192;-51
2022/05/30 04:15:46;;;;;;;12.07;3.55;;;10.60;99.90;;;;;;5095375;28;20161;-51
2022/05/30 04:18:12;;;;;;;7.03;2.60;;;10.60;99.90;;;;;;5095156;28;20172;-51
2022/05/30 04:20:40;;;;;;;8.98;3.35;;;10.60;99.90;;;;;;5095340;28;20185;-51
2022/05/30 04:23:05;;;;;;;6.88;2.90;;;10.70;99.90;;;;;;5095115;28;20166;-51
2022/05/30 04:25:31;;;;;;;7.03;2.92;;;10.70;99.90;;;;;;5094992;28;20265;-51
2022/05/30 04:27:57;;;;;;;12.18;3.40;;;10.60;99.90;;;;;;5095487;28;20260;-51
2022/05/30 04:30:23;;;;;;;5.95;3.10;;;10.60;99.90;;;;;;5094984;28;20626;-51
2022/05/30 04:32:49;;;;;;;12.20;3.25;;;10.70;99.90;;;;;;5095078;28;20172;-51
2022/05/30 04:35:15;;;;;;;9.38;3.22;;;10.60;99.90;;;;;;5095065;28;20169;-52
2022/05/30 04:37:40;;;;;;;9.88;3.22;;;10.60;99.90;;;;;;5076881;28;20638;-51
2022/05/30 04:40:08;;;;;;;8.20;3.53;;;10.70;99.90;;;;;;5094770;28;20169;-51
2022/05/30 04:42:34;;;;;;;13.70;4.20;;;10.70;99.90;;;;;;5095027;28;20165;-51
2022/05/30 04:44:59;;;;;;;11.88;3.80;;;10.70;99.90;;;;;;5076561;28;20679;-51
2022/05/30 04:47:25;;;;;;;9.45;3.30;;;10.70;99.90;;;;;;5076702;28;20527;-51
2022/05/30 04:49:50;;;;;;;7.55;2.90;;;10.70;99.90;;;;;;5094589;28;20178;-51
2022/05/30 04:52:16;;;;;;;13.45;3.47;;;10.80;99.90;;;;;;5094412;28;20209;-51
2022/05/30 04:54:42;;;;;;;8.57;3.38;;;10.80;99.90;;;;;;5094555;28;20176;-51
2022/05/30 04:57:08;;;;;;;10.75;3.33;;;10.80;99.90;;;;;;5094359;28;20173;-51
2022/05/30 04:59:33;;;;;;;14.93;4.82;;;10.80;99.90;;;;;;5094679;28;20252;-51
2022/05/30 05:01:59;;;;;;;10.13;3.42;;;10.90;99.90;;;;;;5093757;28;20596;-50
2022/05/30 05:04:25;;;;;;;8.13;3.33;;;10.90;99.90;;;;;;5094206;28;20556;-50
2022/05/30 05:06:50;;;;;;;8.50;3.15;;;10.90;99.90;;;;;;5094301;28;20162;-49
2022/05/30 05:09:16;;;;;;;10.60;3.45;;;10.90;99.90;;;;;;5094189;28;20168;-50
2022/05/30 05:11:42;;;;;;;6.35;4.53;;;11.00;99.90;;;;;;5094378;28;20162;-51
2022/05/30 05:14:07;;;;;;;12.10;3.58;;;11.10;99.90;;;;;;5094100;28;20177;-51
2022/05/30 05:16:33;;;;;;;8.73;3.05;;;11.10;99.90;;;;;;5094170;28;20173;-51
2022/05/30 05:18:59;;;;;;;7.78;3.20;;;11.10;99.90;;;;;;5094198;28;20177;-50
2022/05/30 05:21:30;;;;;;;10.68;3.10;;;11.20;99.90;;;;;;5093869;28;20227;-51
2022/05/30 05:23:56;;;;;;;13.50;3.72;;;11.30;99.90;;;;;;5094082;28;20173;-51
2022/05/30 05:26:22;;;;;;;9.30;2.97;;;11.30;99.90;;;;;;5093319;28;20181;-48
2022/05/30 05:28:48;;;;;;;6.45;3.00;;;11.30;99.90;;;;;;5093883;28;20187;-48
2022/05/30 05:31:28;;;;;;;4.90;2.72;;;11.30;99.90;;;;;;5093735;28;20219;-48
2022/05/30 05:33:57;;;;;;;9.70;3.38;;;11.50;99.90;;;;;;5093784;28;20510;-47
2022/05/30 05:36:25;;;;;;;9.70;2.72;;;11.50;99.90;;;;;;5093903;28;20176;-47
2022/05/30 05:38:51;;;;;;;10.02;2.42;;;11.60;99.90;;;;;;5093771;28;20582;-49
2022/05/30 05:41:17;;;;;;;10.55;3.03;;;11.70;99.90;;;;;;5093353;28;20208;-47
2022/05/30 05:43:42;;;;;;;10.88;2.80;;;11.80;99.90;;;;;;5093254;28;20169;-47
2022/05/30 05:46:15;;;;;;;5.97;2.28;;;11.80;99.90;;;;;;5093261;28;20184;-47
2022/05/30 05:48:41;;;;;;;8.85;2.22;;;11.80;99.90;;;;;;5093238;28;20244;-46
2022/05/30 05:51:06;;;;;;;7.75;2.70;;;11.90;99.90;;;;;;5092895;28;20248;-47
2022/05/30 05:53:32;;;;;;;12.45;3.25;;;11.90;99.90;;;;;;5093242;28;20248;-46
2022/05/30 05:55:57;;;;;;;9.30;2.63;;;12.00;99.90;;;;;;5093512;28;20248;-46
2022/05/30 05:58:23;;;;;;;8.93;2.78;;;11.90;99.90;;;;;;5093091;28;20165;-49
2022/05/30 06:00:49;;;;;;;9.10;2.53;;;11.90;99.90;;;;;;5093160;28;20170;-47
2022/05/30 06:03:14;;;;;;;10.98;2.65;;;11.90;99.90;;;;;;5093045;28;20169;-48
2022/05/30 06:05:40;;;;;;;13.45;3.08;;;11.90;99.90;;;;;;5093053;28;20205;-47
2022/05/30 06:08:06;;;;;;;7.72;2.60;;;11.90;99.90;;;;;;5093017;28;20172;-47
2022/05/30 06:11:04;;;;;;;9.38;2.97;;;11.90;99.90;;;;;;5093205;28;20189;-49
2022/05/30 06:13:18;;;;;;;8.98;2.63;;;12.00;99.90;;;;;;5092544;28;20242;-47
2022/05/30 06:15:44;;;;;;;10.88;2.40;;;12.00;99.90;;;;;;5093143;28;20637;-48
2022/05/30 06:18:10;;;;;;;8.68;2.13;;;11.90;99.90;;;;;;5093134;28;20178;-46
2022/05/30 06:20:35;;;;;;;7.30;2.60;;;11.90;99.90;;;;;;5092874;28;20173;-45
2022/05/30 06:23:00;;;;;;;12.35;2.78;;;11.90;99.90;;;;;;5092844;28;20722;-47
2022/05/30 06:25:26;;;;;;;9.45;2.92;;;11.90;99.90;;;;;;5092935;28;20204;-48
2022/05/30 06:27:51;;;;;;;10.68;2.97;;;11.90;99.90;;;;;;5092700;28;20177;-50
2022/05/30 06:30:17;;;;;;;7.65;2.20;;;11.90;99.90;;;;;;5092597;28;20212;-47
2022/05/30 06:32:43;;;;;;;6.07;2.58;;;11.90;99.90;;;;;;5074290;28;20169;-46
2022/05/30 06:35:08;;;;;;;9.55;2.67;;;11.90;99.90;;;;;;5092849;28;20169;-47
2022/05/30 06:37:34;;;;;;;6.97;2.20;;;11.90;99.90;;;;;;5092590;28;20161;-46
2022/05/30 06:39:59;;;;;;;9.93;3.13;;;11.90;99.90;;;;;;5092535;28;20168;-45
2022/05/30 06:42:26;;;;;;;11.18;3.22;;;11.90;99.90;;;;;;5092818;28;20526;-48
2022/05/30 06:44:51;;;;;;;11.65;3.08;;;12.00;99.90;;;;;;5092462;28;20212;-47
2022/05/30 06:47:17;;;;;;;9.38;2.65;;;12.10;99.90;;;;;;5092379;28;20161;-46
2022/05/30 06:49:42;;;;;;;15.65;3.47;;;12.00;99.90;;;;;;5108073;28;20176;-45
2022/05/30 06:52:08;;;;;;;10.68;4.15;;;12.10;99.90;;;;;;5092086;28;20278;-45
2022/05/30 06:54:34;;;;;;;11.43;3.55;;;12.00;99.90;;;;;;5092508;28;20207;-46
2022/05/30 06:59:44;;;;;;;9.68;3.85;;;12.00;99.90;;;;;;5092284;28;20610;-47
2022/05/30 07:02:10;;;;;;;12.40;3.92;;;12.00;99.90;;;;;;5092232;28;20189;-46
2022/05/30 07:04:36;;;;;;;8.50;3.00;;;12.00;99.90;;;;;;5092030;28;20213;-47
2022/05/30 07:07:07;;;;;;;11.85;3.00;;;12.10;99.90;;;;;;5092364;28;20631;-46
2022/05/30 07:09:34;;;;;;;9.80;2.97;;;12.20;99.90;;;;;;5092129;28;20161;-45
2022/05/30 07:12:00;;;;;;;11.18;3.33;;;12.30;99.90;;;;;;5092284;28;20610;-48
2022/05/30 07:14:26;;;;;;;11.80;3.58;;;12.40;99.90;;;;;;5092308;28;20222;-48
2022/05/30 07:16:51;;;;;;;13.45;3.53;;;12.50;99.90;;;;;;5091924;28;20173;-47
2022/05/30 07:19:17;;;;;;;11.85;3.00;;;12.60;99.90;;;;;;5091895;28;20162;-48
2022/05/30 07:21:43;;;;;;;12.32;3.70;;;12.70;99.90;;;;;;5073667;28;20237;-46
2022/05/30 07:24:12;;;;;;;8.45;3.22;;;12.80;99.90;;;;;;5093200;28;20650;-46
2022/05/30 07:26:38;;;;;;;11.70;4.10;;;12.80;99.90;;;;;;5096224;28;20630;-48
2022/05/30 07:29:04;;;;;;;12.82;3.88;;;12.90;99.90;;;;;;5096145;28;20173;-48
2022/05/30 07:31:30;;;;;;;14.00;3.75;;;12.90;99.90;;;;;;5096251;28;20528;-48
2022/05/30 07:33:57;;;;;;;12.25;3.50;;;13.10;99.90;;;;;;5096291;28;20169;-46
2022/05/30 07:36:26;;;;;;;9.95;3.53;;;13.20;99.90;;;;;;5095844;28;20641;-47
2022/05/30 07:38:53;;;;;;;7.05;3.28;;;13.20;99.90;;;;;;5095937;28;20160;-50
2022/05/30 07:41:20;;;;;;;12.68;3.85;;;13.10;99.90;;;;;;5095846;28;20172;-49
2022/05/30 07:43:47;;;;;;;16.42;4.03;;;12.90;99.90;;;;;;5095715;28;20158;-47
2022/05/30 07:46:15;;;;;;;14.25;4.55;;;13.00;99.90;;;;;;5095758;28;20634;-48
2022/05/30 07:48:42;;;;;;;11.25;3.15;;;13.00;99.90;;;;;;5095740;28;20173;-49
2022/05/30 07:51:09;;;;;;;71.65;11.93;;;13.00;99.90;;;;;;5095387;28;20174;-49
2022/05/30 07:53:37;;;;;;;16.65;4.75;;;13.20;99.90;;;;;;5095654;28;20189;-48
2022/05/30 07:56:07;;;;;;;17.98;4.68;;;13.20;99.90;;;;;;5095679;28;20165;-50
2022/05/30 07:58:34;;;;;;;12.75;3.28;;;13.10;99.90;;;;;;5095539;28;20567;-47
2022/05/30 08:00:59;;;;;;;11.60;4.18;;;12.90;99.90;;;;;;5095843;28;20164;-45
2022/05/30 08:03:28;;;;;;;17.63;4.28;;;13.00;99.90;;;;;;5095898;28;20256;-46
2022/05/30 08:06:09;;;;;;;12.82;3.97;;;13.10;99.90;;;;;;5095455;28;20620;-45
2022/05/30 08:08:34;;;;;;;10.75;4.43;;;13.50;99.90;;;;;;5095361;28;20169;-46
2022/05/30 08:11:00;;;;;;;10.25;3.70;;;13.70;99.90;;;;;;5095196;28;20230;-45
2022/05/30 08:13:25;;;;;;;14.43;4.40;;;13.80;99.90;;;;;;5095561;28;20168;-47
2022/05/30 08:15:51;;;;;;;11.38;4.28;;;13.60;99.90;;;;;;5095194;28;20233;-47
2022/05/30 08:18:18;;;;;;;10.90;3.95;;;13.60;99.90;;;;;;5095180;28;20157;-47
2022/05/30 08:20:44;;;;;;;8.70;3.85;;;13.50;99.90;;;;;;5094914;28;20205;-46
2022/05/30 08:23:11;;;;;;;15.05;4.00;;;13.60;99.90;;;;;;5095168;28;20248;-46
2022/05/30 08:25:38;;;;;;;8.82;3.72;;;13.70;99.90;;;;;;5094974;28;20207;-47
2022/05/30 08:28:04;;;;;;;14.48;4.18;;;13.80;99.90;;;;;;5094860;28;20170;-45
2022/05/30 08:30:29;;;;;;;13.00;4.13;;;13.70;99.90;;;;;;5094719;28;20180;-46
2022/05/30 08:32:55;;;;;;;10.23;4.43;;;13.60;99.90;;;;;;5095556;28;20169;-45
2022/05/30 08:35:22;;;;;;;11.10;4.15;;;13.40;99.90;;;;;;5094716;28;20173;-47
2022/05/30 08:37:48;;;;;;;11.52;4.38;;;13.30;99.90;;;;;;5094954;28;20211;-46
2022/05/30 08:43:16;;;;;;;9.60;3.92;;;13.40;99.90;;;;;;5095581;28;20176;-45
2022/05/30 08:45:44;;;;;;;9.02;3.35;;;13.50;99.90;;;;;;5094585;28;20240;-47
2022/05/30 08:48:14;;;;;;;11.25;3.63;;;13.50;99.90;;;;;;5094646;28;20622;-46
2022/05/30 08:50:47;;;;;;;10.40;4.00;;;13.50;99.90;;;;;;5077104;28;20630;-47
2022/05/30 08:53:46;;;;;;;9.93;3.30;;;13.20;99.90;;;;;;5094571;28;20209;-49
2022/05/30 08:56:35;;;;;;;6.80;3.28;;;13.20;99.90;;;;;;5094790;28;20161;-47
2022/05/30 08:59:11;;;;;;;9.80;3.42;;;13.30;99.90;;;;;;5094192;28;20234;-47
2022/05/30 09:01:43;;;;;;;8.23;2.90;;;13.30;99.90;;;;;;5095322;28;20538;-48
2022/05/30 09:04:34;;;;;;;10.85;3.47;;;13.20;99.90;;;;;;5094967;28;20165;-47
2022/05/30 09:07:08;;;;;;;11.90;4.30;;;13.30;99.90;;;;;;5094926;28;20628;-46
2022/05/30 09:09:52;;;;;;;12.27;4.40;;;13.60;99.90;;;;;;5076121;28;20170;-46
2022/05/30 09:12:20;;;;;;;9.85;3.72;;;13.90;99.90;;;;;;5094800;28;20630;-47
2022/05/30 09:14:55;;;;;;;15.43;4.63;;;13.80;99.90;;;;;;5094395;28;20173;-50
2022/05/30 09:17:29;;;;;;;12.82;4.63;;;13.90;99.90;;;;;;5093851;28;20169;-49
2022/05/30 09:19:57;;;;;;;15.45;4.90;;;14.20;99.90;;;;;;5094287;28;20191;-49
2022/05/30 09:22:25;;;;;;;13.88;5.38;;;14.20;99.90;;;;;;5094014;28;20157;-48
2022/05/30 09:27:35;;;;;;;14.82;4.88;;;14.50;99.90;;;;;;5094255;28;20219;-48
2022/05/30 09:30:03;;;;;;;13.10;5.07;;;14.50;99.90;;;;;;5093159;28;20173;-48
2022/05/30 09:32:43;;;;;;;10.48;4.60;;;14.70;99.90;;;;;;5094103;28;20165;-47
2022/05/30 09:35:23;;;;;;;14.73;6.15;;;14.90;99.90;;;;;;5093446;28;20169;-50
2022/05/30 09:38:10;;;;;;;12.93;5.88;;;14.90;99.90;;;;;;5092962;28;20204;-47
2022/05/30 09:40:42;;;;;;;13.80;6.45;;;15.10;99.90;;;;;;5093342;28;20168;-46
2022/05/30 09:43:13;;;;;;;17.35;5.68;;;15.20;99.90;;;;;;5093581;28;20165;-48
2022/05/30 09:45:38;;;;;;;16.20;6.10;;;15.20;99.90;;;;;;5093415;28;20201;-48
2022/05/30 09:48:13;;;;;;;12.82;5.65;;;15.10;99.90;;;;;;5092970;28;20165;-48
2022/05/30 09:50:46;;;;;;;13.15;5.43;;;15.20;99.90;;;;;;5093106;28;20259;-50
2022/05/30 09:53:11;;;;;;;10.55;5.50;;;15.20;99.90;;;;;;5093235;28;20638;-50
2022/05/30 09:55:51;;;;;;;10.20;5.25;;;15.30;99.90;;;;;;5093128;28;20208;-48
2022/05/30 09:58:17;;;;;;;13.77;5.60;;;15.50;99.90;;;;;;5093185;28;20267;-47
2022/05/30 10:00:55;;;;;;;12.40;5.50;;;15.50;99.90;;;;;;5093187;28;20161;-47
2022/05/30 10:03:26;;;;;;;10.45;4.30;;;15.60;99.90;;;;;;5092998;28;20157;-48
2022/05/30 10:06:10;;;;;;;10.98;4.40;;;15.60;99.90;;;;;;5092986;28;20554;-47
2022/05/30 10:08:36;;;;;;;8.90;4.38;;;15.60;99.90;;;;;;5093034;28;20173;-47
2022/05/30 10:11:01;;;;;;;8.68;4.82;;;15.60;99.90;;;;;;5092952;28;20169;-47
2022/05/30 10:13:37;;;;;;;8.70;4.03;;;15.60;99.90;;;;;;5093006;28;20230;-47
2022/05/30 10:16:06;;;;;;;9.13;3.80;;;15.80;99.90;;;;;;5092898;28;20172;-47
2022/05/30 10:18:52;;;;;;;10.88;4.18;;;15.80;99.90;;;;;;5092687;28;20257;-47
2022/05/30 10:21:27;;;;;;;7.15;3.88;;;15.80;99.90;;;;;;5092654;28;20176;-46
2022/05/30 10:30:39;;;;;;;8.93;3.58;;;15.80;99.90;;;;;;5013794;28;20620;-48
2022/05/30 10:33:05;;;;;;;8.98;3.67;;;15.80;99.90;;;;;;5092647;28;20233;-47
2022/05/30 10:35:56;;;;;;;11.30;4.05;;;15.60;99.90;;;;;;5092781;28;20169;-47
2022/05/30 10:38:44;;;;;;;8.57;3.97;;;16.00;99.90;;;;;;5092566;28;20161;-46
2022/05/30 10:41:38;;;;;;;9.00;4.45;;;16.10;99.90;;;;;;5092314;28;20565;-46
2022/05/30 10:44:20;;;;;;;11.32;4.32;;;16.20;99.90;;;;;;5092349;28;20253;-46
2022/05/30 10:47:04;;;;;;;10.20;4.20;;;16.30;99.90;;;;;;5092635;28;20177;-49
2022/05/30 10:49:37;;;;;;;9.68;3.90;;;16.30;99.90;;;;;;5092492;28;20580;-47
2022/05/30 10:52:39;;;;;;;6.85;3.05;;;16.30;99.90;;;;;;5092257;28;20209;-45
2022/05/30 10:55:12;;;;;;;7.43;2.90;;;16.90;99.90;;;;;;5092248;28;20264;-46
2022/05/30 10:57:59;;;;;;;7.75;2.95;;;17.10;99.90;;;;;;5092153;28;20165;-45
2022/05/30 11:00:34;;;;;;;6.80;2.65;;;16.80;99.90;;;;;;5092118;28;20181;-47
2022/05/30 11:03:09;;;;;;;8.77;2.92;;;16.30;99.90;;;;;;5092750;28;20169;-47
2022/05/30 11:05:44;;;;;;;7.00;2.80;;;16.30;99.90;;;;;;5092295;28;20216;-46
2022/05/30 11:08:18;;;;;;;8.00;3.20;;;16.50;99.90;;;;;;5092086;28;20157;-46
2022/05/30 11:11:34;;;;;;;7.65;2.67;;;16.90;99.90;;;;;;5091812;28;20165;-45
2022/05/30 11:14:30;;;;;;;7.95;3.30;;;16.70;99.90;;;;;;5057162;28;20219;-45
2022/05/30 11:17:08;;;;;;;8.07;3.10;;;16.80;99.90;;;;;;5091304;28;20189;-45
2022/05/30 11:20:02;;;;;;;7.38;2.50;;;17.20;99.90;;;;;;5091719;28;20240;-45
2022/05/30 11:22:35;;;;;;;6.68;2.47;;;16.90;99.90;;;;;;5092274;28;20202;-45
2022/05/30 11:25:03;;;;;;;6.03;2.40;;;16.70;99.90;;;;;;5091746;28;20266;-46
2022/05/30 11:27:37;;;;;;;5.25;2.38;;;16.70;99.90;;;;;;5091425;28;20162;-45
2022/05/30 11:30:12;;;;;;;7.68;2.22;;;17.00;99.90;;;;;;5091764;28;20255;-46
2022/05/30 11:33:06;;;;;;;4.03;2.10;;;17.40;99.90;;;;;;5091876;28;20310;-46
2022/05/30 11:35:52;;;;;;;5.95;2.22;;;17.40;99.90;;;;;;5073955;28;20267;-45
2022/05/30 11:38:48;;;;;;;6.85;2.53;;;17.50;99.90;;;;;;5091587;28;20218;-45
2022/05/30 11:41:39;;;;;;;5.35;2.38;;;17.60;99.90;;;;;;5091504;28;20178;-45
2022/05/30 11:44:25;;;;;;;6.85;2.88;;;17.70;99.90;;;;;;5091024;28;20177;-45
2022/05/30 11:47:14;;;;;;;8.55;2.38;;;17.60;99.90;;;;;;5091749;28;20182;-45
2022/05/30 11:50:01;;;;;;;7.20;2.50;;;17.60;99.90;;;;;;5091509;28;20179;-46
2022/05/30 11:52:33;;;;;;;5.72;2.53;;;17.60;99.90;;;;;;5091364;28;20235;-45
2022/05/30 11:55:11;;;;;;;5.70;2.20;;;17.40;99.90;;;;;;5092004;28;20252;-45
2022/05/30 11:57:48;;;;;;;6.22;2.28;;;17.40;99.90;;;;;;5091326;28;20657;-46
2022/05/30 12:00:30;;;;;;;6.03;2.50;;;17.50;99.90;;;;;;5091226;28;20631;-47
2022/05/30 12:03:01;;;;;;;5.60;2.15;;;17.20;99.90;;;;;;5091962;28;20165;-45
2022/05/30 12:05:42;;;;;;;5.85;2.33;;;17.20;99.90;;;;;;5091702;28;20197;-46
2022/05/30 12:08:32;;;;;;;6.93;2.03;;;17.50;99.90;;;;;;5091004;28;20533;-46
2022/05/30 12:11:04;;;;;;;7.90;2.17;;;17.40;99.90;;;;;;5094136;28;20200;-47
2022/05/30 12:14:06;;;;;;;6.35;2.33;;;17.30;99.90;;;;;;5095461;28;20170;-45
2022/05/30 12:16:45;;;;;;;5.95;1.88;;;17.40;99.90;;;;;;5094940;28;20161;-45
2022/05/30 12:24:52;;;;;;;5.30;2.22;;;17.40;99.90;;;;;;5095000;28;20236;-46
2022/05/30 12:27:36;;;;;;;4.28;1.90;;;17.00;99.90;;;;;;5095288;28;20201;-46
2022/05/30 12:30:12;;;;;;;6.65;2.47;;;17.10;99.90;;;;;;5094967;28;20158;-46
2022/05/30 12:32:39;;;;;;;7.53;2.20;;;17.20;99.90;;;;;;5076790;28;20172;-46
2022/05/30 12:35:14;;;;;;;5.47;1.50;;;17.10;99.90;;;;;;5095110;28;20261;-45
2022/05/30 12:37:55;;;;;;;4.50;1.67;;;17.00;99.90;;;;;;5094754;28;20230;-47
2022/05/30 12:40:24;;;;;;;5.75;1.90;;;17.20;99.90;;;;;;5094465;28;20264;-47
2022/05/30 12:43:21;;;;;;;7.22;2.22;;;17.20;99.90;;;;;;5094768;28;20165;-50
2022/05/30 12:46:06;;;;;;;5.15;2.22;;;17.10;99.90;;;;;;5094877;28;20205;-48
2022/05/30 12:48:38;;;;;;;2.97;1.67;;;17.30;99.90;;;;;;5076441;28;20169;-49
2022/05/30 12:51:20;;;;;;;6.15;2.13;;;17.50;99.90;;;;;;5094358;28;20165;-49
2022/05/30 12:53:54;;;;;;;7.53;2.00;;;17.60;99.90;;;;;;5076569;28;20188;-48
2022/05/30 12:56:41;;;;;;;2.80;1.52;;;17.60;99.90;;;;;;5076548;28;20167;-48
2022/05/30 12:59:17;;;;;;;5.10;1.80;;;17.60;99.90;;;;;;5094551;28;20294;-48
2022/05/30 13:01:43;;;;;;;5.22;1.90;;;17.60;99.90;;;;;;5094752;28;20184;-47
2022/05/30 13:04:22;;;;;;;3.50;1.77;;;17.40;99.90;;;;;;5094205;28;20528;-48
2022/05/30 13:06:57;;;;;;;4.78;1.90;;;17.10;99.90;;;;;;5094163;28;20638;-50
2022/05/30 13:09:46;;;;;;;3.88;1.92;;;17.00;99.90;;;;;;5094358;28;20230;-47
2022/05/30 13:12:14;;;;;;;3.50;2.03;;;16.90;99.90;;;;;;5083422;28;20217;-49
2022/05/30 13:15:00;;;;;;;4.25;1.80;;;16.90;99.90;;;;;;5094029;28;20166;-49
2022/05/30 13:17:57;;;;;;;3.63;1.88;;;17.10;99.90;;;;;;5094341;28;20632;-46
2022/05/30 13:20:46;;;;;;;4.38;1.85;;;17.30;99.90;;;;;;5093835;28;20176;-49
2022/05/30 13:23:12;;;;;;;4.85;1.80;;;17.30;99.90;;;;;;5093116;28;20557;-48
2022/05/30 13:25:58;;;;;;;3.08;1.70;;;17.50;99.90;;;;;;5109629;28;20205;-47
2022/05/30 13:28:38;;;;;;;6.90;1.85;;;17.50;99.90;;;;;;5093336;28;20199;-48
2022/05/30 13:31:08;;;;;;;5.85;1.70;;;17.80;99.90;;;;;;5093637;28;20176;-47
2022/05/30 13:33:39;;;;;;;4.90;1.83;;;18.10;99.80;;;;;;5093402;28;20625;-48